sensor_id;sensor_type;location;lat;lon;timestamp;pressure;altitude;pressure_sealevel;temperature;humidity
41712;BME280;27399;51.516;13.670;2023-04-23T00:01:36;99704.28;;;14.78;73.91
41712;BME280;27399;51.516;13.670;2023-04-23T00:04:07;99702.50;;;14.77;73.27
41712;BME280;27399;51.516;13.670;2023-04-23T00:06:34;99705.97;;;14.80;73.06
41712;BME280;27399;51.516;13.670;2023-04-23T00:09:00;99701.50;;;14.79;72.54
41712;BME280;27399;51.516;13.670;2023-04-23T00:11:26;99704.84;;;14.86;70.40
41712;BME280;27399;51.516;13.670;2023-04-23T00:13:52;99698.78;;;14.81;68.81
41712;BME280;27399;51.516;13.670;2023-04-23T00:16:19;99701.16;;;14.88;68.23
41712;BME280;27399;51.516;13.670;2023-04-23T00:18:45;99702.16;;;14.86;69.51
41712;BME280;27399;51.516;13.670;2023-04-23T00:21:11;99701.22;;;14.87;71.14
41712;BME280;27399;51.516;13.670;2023-04-23T00:23:37;99693.75;;;14.71;72.22
41712;BME280;27399;51.516;13.670;2023-04-23T00:26:03;99696.59;;;14.67;72.84
41712;BME280;27399;51.516;13.670;2023-04-23T00:28:29;99690.28;;;14.69;72.93
41712;BME280;27399;51.516;13.670;2023-04-23T00:30:54;99693.94;;;14.65;72.84
41712;BME280;27399;51.516;13.670;2023-04-23T00:33:20;99679.66;;;14.39;74.43
41712;BME280;27399;51.516;13.670;2023-04-23T00:35:46;99686.84;;;14.39;74.06
41712;BME280;27399;51.516;13.670;2023-04-23T00:38:12;99684.28;;;14.36;74.38
41712;BME280;27399;51.516;13.670;2023-04-23T00:40:37;99684.00;;;14.44;74.29
41712;BME280;27399;51.516;13.670;2023-04-23T00:43:03;99687.41;;;14.49;73.88
41712;BME280;27399;51.516;13.670;2023-04-23T00:45:29;99687.72;;;14.39;73.85
41712;BME280;27399;51.516;13.670;2023-04-23T00:47:55;99683.06;;;14.45;73.47
41712;BME280;27399;51.516;13.670;2023-04-23T00:50:21;99673.06;;;14.24;75.12
41712;BME280;27399;51.516;13.670;2023-04-23T00:52:47;99680.13;;;14.27;75.06
41712;BME280;27399;51.516;13.670;2023-04-23T00:55:12;99683.09;;;14.19;74.78
41712;BME280;27399;51.516;13.670;2023-04-23T00:57:38;99679.34;;;14.23;74.66
41712;BME280;27399;51.516;13.670;2023-04-23T01:00:05;99678.22;;;14.05;75.96
41712;BME280;27399;51.516;13.670;2023-04-23T01:02:33;99681.09;;;13.99;73.22
41712;BME280;27399;51.516;13.670;2023-04-23T01:05:00;99681.81;;;14.04;73.94
41712;BME280;27399;51.516;13.670;2023-04-23T01:07:26;99679.03;;;13.81;76.69
41712;BME280;27399;51.516;13.670;2023-04-23T01:09:52;99675.28;;;13.86;75.51
41712;BME280;27399;51.516;13.670;2023-04-23T01:12:18;99676.78;;;13.95;75.64
41712;BME280;27399;51.516;13.670;2023-04-23T01:14:44;99678.72;;;13.90;76.12
41712;BME280;27399;51.516;13.670;2023-04-23T01:17:10;99679.97;;;14.06;75.97
41712;BME280;27399;51.516;13.670;2023-04-23T01:19:37;99687.38;;;13.98;76.40
41712;BME280;27399;51.516;13.670;2023-04-23T01:22:10;99682.34;;;13.89;76.62
41712;BME280;27399;51.516;13.670;2023-04-23T01:24:37;99680.47;;;13.91;76.66
41712;BME280;27399;51.516;13.670;2023-04-23T01:27:03;99677.59;;;13.70;77.00
41712;BME280;27399;51.516;13.670;2023-04-23T01:29:28;99677.84;;;13.62;76.71
41712;BME280;27399;51.516;13.670;2023-04-23T01:31:55;99683.88;;;13.69;76.13
41712;BME280;27399;51.516;13.670;2023-04-23T01:34:22;99675.00;;;13.67;76.41
41712;BME280;27399;51.516;13.670;2023-04-23T01:36:47;99673.09;;;13.44;78.00
41712;BME280;27399;51.516;13.670;2023-04-23T01:39:14;99681.31;;;13.38;78.31
41712;BME280;27399;51.516;13.670;2023-04-23T01:41:40;99674.94;;;13.42;77.34
41712;BME280;27399;51.516;13.670;2023-04-23T01:44:06;99669.66;;;13.40;77.52
41712;BME280;27399;51.516;13.670;2023-04-23T01:46:32;99674.69;;;13.50;78.35
41712;BME280;27399;51.516;13.670;2023-04-23T01:48:57;99680.75;;;13.55;78.59
41712;BME280;27399;51.516;13.670;2023-04-23T01:51:24;99679.13;;;13.51;78.59
41712;BME280;27399;51.516;13.670;2023-04-23T01:53:50;99672.63;;;13.58;78.24
41712;BME280;27399;51.516;13.670;2023-04-23T01:56:18;99672.03;;;13.50;79.04
41712;BME280;27399;51.516;13.670;2023-04-23T01:58:46;99668.47;;;13.49;79.23
41712;BME280;27399;51.516;13.670;2023-04-23T02:01:12;99663.41;;;13.40;79.35
41712;BME280;27399;51.516;13.670;2023-04-23T02:03:37;99671.66;;;13.32;79.80
41712;BME280;27399;51.516;13.670;2023-04-23T02:06:03;99664.22;;;13.42;80.16
41712;BME280;27399;51.516;13.670;2023-04-23T02:08:29;99662.78;;;13.30;79.51
41712;BME280;27399;51.516;13.670;2023-04-23T02:10:55;99661.72;;;13.36;78.97
41712;BME280;27399;51.516;13.670;2023-04-23T02:13:20;99666.09;;;13.38;80.13
41712;BME280;27399;51.516;13.670;2023-04-23T02:15:46;99667.31;;;13.28;79.71
41712;BME280;27399;51.516;13.670;2023-04-23T02:18:12;99656.16;;;13.43;79.29
41712;BME280;27399;51.516;13.670;2023-04-23T02:20:37;99657.13;;;13.41;79.97
41712;BME280;27399;51.516;13.670;2023-04-23T02:23:09;99657.22;;;13.36;79.00
41712;BME280;27399;51.516;13.670;2023-04-23T02:25:36;99663.06;;;13.51;78.78
41712;BME280;27399;51.516;13.670;2023-04-23T02:28:04;99668.28;;;13.55;77.74
41712;BME280;27399;51.516;13.670;2023-04-23T02:30:32;99661.53;;;13.43;77.90
41712;BME280;27399;51.516;13.670;2023-04-23T02:32:58;99659.47;;;13.52;78.82
41712;BME280;27399;51.516;13.670;2023-04-23T02:35:23;99660.28;;;13.54;78.44
41712;BME280;27399;51.516;13.670;2023-04-23T02:37:49;99658.84;;;13.43;78.65
41712;BME280;27399;51.516;13.670;2023-04-23T02:40:15;99661.53;;;13.43;78.65
41712;BME280;27399;51.516;13.670;2023-04-23T02:42:41;99655.38;;;13.38;78.76
41712;BME280;27399;51.516;13.670;2023-04-23T02:45:07;99647.81;;;13.24;79.23
41712;BME280;27399;51.516;13.670;2023-04-23T02:47:33;99650.34;;;13.29;79.21
41712;BME280;27399;51.516;13.670;2023-04-23T02:49:58;99646.66;;;13.33;79.07
41712;BME280;27399;51.516;13.670;2023-04-23T02:52:27;99637.97;;;13.25;79.36
41712;BME280;27399;51.516;13.670;2023-04-23T02:54:53;99646.03;;;13.23;79.81
41712;BME280;27399;51.516;13.670;2023-04-23T02:57:18;99650.09;;;13.08;79.95
41712;BME280;27399;51.516;13.670;2023-04-23T02:59:44;99649.75;;;12.91;80.36
41712;BME280;27399;51.516;13.670;2023-04-23T03:02:10;99643.88;;;12.78;80.50
41712;BME280;27399;51.516;13.670;2023-04-23T03:04:36;99641.03;;;12.82;80.12
41712;BME280;27399;51.516;13.670;2023-04-23T03:07:02;99649.84;;;12.86;80.35
41712;BME280;27399;51.516;13.670;2023-04-23T03:09:27;99649.41;;;12.71;80.36
41712;BME280;27399;51.516;13.670;2023-04-23T03:11:53;99645.59;;;12.80;79.96
41712;BME280;27399;51.516;13.670;2023-04-23T03:14:18;99639.56;;;12.72;80.49
41712;BME280;27399;51.516;13.670;2023-04-23T03:16:44;99637.28;;;12.90;80.36
41712;BME280;27399;51.516;13.670;2023-04-23T03:19:10;99631.72;;;12.96;80.35
41712;BME280;27399;51.516;13.670;2023-04-23T03:21:35;99629.28;;;12.88;80.59
41712;BME280;27399;51.516;13.670;2023-04-23T03:24:01;99630.06;;;12.62;81.69
41712;BME280;27399;51.516;13.670;2023-04-23T03:26:26;99630.97;;;12.62;81.90
41712;BME280;27399;51.516;13.670;2023-04-23T03:28:52;99630.19;;;12.87;80.36
41712;BME280;27399;51.516;13.670;2023-04-23T03:31:18;99637.56;;;12.80;80.48
41712;BME280;27399;51.516;13.670;2023-04-23T03:33:43;99636.38;;;12.89;81.11
41712;BME280;27399;51.516;13.670;2023-04-23T03:36:09;99636.31;;;12.92;80.64
41712;BME280;27399;51.516;13.670;2023-04-23T03:38:35;99640.50;;;13.01;80.02
41712;BME280;27399;51.516;13.670;2023-04-23T03:41:00;99641.56;;;12.95;80.58
41712;BME280;27399;51.516;13.670;2023-04-23T03:43:26;99642.34;;;12.99;80.42
41712;BME280;27399;51.516;13.670;2023-04-23T03:45:52;99637.00;;;12.99;80.47
41712;BME280;27399;51.516;13.670;2023-04-23T03:48:17;99634.94;;;13.07;80.28
41712;BME280;27399;51.516;13.670;2023-04-23T03:50:43;99634.41;;;12.96;80.95
41712;BME280;27399;51.516;13.670;2023-04-23T03:53:08;99638.84;;;12.97;81.14
41712;BME280;27399;51.516;13.670;2023-04-23T03:55:34;99640.81;;;12.90;80.65
41712;BME280;27399;51.516;13.670;2023-04-23T03:58:01;99638.69;;;13.01;80.35
41712;BME280;27399;51.516;13.670;2023-04-23T04:00:27;99636.06;;;13.00;81.18
41712;BME280;27399;51.516;13.670;2023-04-23T04:02:53;99636.84;;;13.04;81.30
41712;BME280;27399;51.516;13.670;2023-04-23T04:05:18;99636.84;;;13.04;81.24
41712;BME280;27399;51.516;13.670;2023-04-23T04:07:44;99637.69;;;13.06;81.79
41712;BME280;27399;51.516;13.670;2023-04-23T04:10:10;99624.19;;;13.09;81.62
41712;BME280;27399;51.516;13.670;2023-04-23T04:12:35;99634.88;;;13.10;81.44
41712;BME280;27399;51.516;13.670;2023-04-23T04:15:02;99622.41;;;13.09;81.74
41712;BME280;27399;51.516;13.670;2023-04-23T04:17:28;99629.91;;;13.26;81.63
41712;BME280;27399;51.516;13.670;2023-04-23T04:19:53;99629.13;;;13.23;81.70
41712;BME280;27399;51.516;13.670;2023-04-23T04:22:22;99628.16;;;13.24;81.69
41712;BME280;27399;51.516;13.670;2023-04-23T04:24:48;99621.88;;;13.25;81.66
41712;BME280;27399;51.516;13.670;2023-04-23T04:27:17;99617.38;;;13.27;80.74
41712;BME280;27399;51.516;13.670;2023-04-23T04:29:42;99620.53;;;13.40;81.87
41712;BME280;27399;51.516;13.670;2023-04-23T04:32:08;99623.56;;;13.29;81.79
41712;BME280;27399;51.516;13.670;2023-04-23T04:34:35;99630.19;;;13.45;81.13
41712;BME280;27399;51.516;13.670;2023-04-23T04:37:02;99637.41;;;13.43;81.34
41712;BME280;27399;51.516;13.670;2023-04-23T04:39:28;99631.47;;;13.60;81.36
41712;BME280;27399;51.516;13.670;2023-04-23T04:41:53;99630.38;;;13.66;81.02
41712;BME280;27399;51.516;13.670;2023-04-23T04:44:19;99629.38;;;13.70;81.03
41712;BME280;27399;51.516;13.670;2023-04-23T04:46:45;99639.66;;;13.56;82.92
41712;BME280;27399;51.516;13.670;2023-04-23T04:49:12;99630.91;;;13.77;80.82
41712;BME280;27399;51.516;13.670;2023-04-23T04:51:39;99636.38;;;13.74;82.34
41712;BME280;27399;51.516;13.670;2023-04-23T04:54:06;99631.13;;;13.71;81.94
41712;BME280;27399;51.516;13.670;2023-04-23T04:56:35;99634.91;;;13.91;80.86
41712;BME280;27399;51.516;13.670;2023-04-23T04:59:01;99631.38;;;13.90;82.58
41712;BME280;27399;51.516;13.670;2023-04-23T05:01:27;99633.75;;;13.98;81.79
41712;BME280;27399;51.516;13.670;2023-04-23T05:03:56;99636.28;;;14.03;81.42
41712;BME280;27399;51.516;13.670;2023-04-23T05:06:22;99633.50;;;14.06;81.17
41712;BME280;27399;51.516;13.670;2023-04-23T05:08:48;99644.22;;;14.06;82.42
41712;BME280;27399;51.516;13.670;2023-04-23T05:11:17;99638.44;;;14.18;81.48
41712;BME280;27399;51.516;13.670;2023-04-23T05:13:43;99642.09;;;14.16;82.07
41712;BME280;27399;51.516;13.670;2023-04-23T05:16:09;99638.16;;;14.01;83.24
41712;BME280;27399;51.516;13.670;2023-04-23T05:18:37;99640.53;;;14.08;83.64
41712;BME280;27399;51.516;13.670;2023-04-23T05:21:02;99640.84;;;14.26;80.55
41712;BME280;27399;51.516;13.670;2023-04-23T05:23:28;99642.84;;;14.45;80.19
41712;BME280;27399;51.516;13.670;2023-04-23T05:25:54;99650.88;;;14.45;81.13
41712;BME280;27399;51.516;13.670;2023-04-23T05:28:21;99645.91;;;14.59;80.62
41712;BME280;27399;51.516;13.670;2023-04-23T05:30:47;99644.69;;;14.68;79.78
41712;BME280;27399;51.516;13.670;2023-04-23T05:33:13;99648.00;;;14.75;79.17
41712;BME280;27399;51.516;13.670;2023-04-23T05:35:39;99645.97;;;14.81;77.75
41712;BME280;27399;51.516;13.670;2023-04-23T05:38:04;99636.91;;;14.84;79.43
41712;BME280;27399;51.516;13.670;2023-04-23T05:40:31;99639.44;;;14.88;78.75
41712;BME280;27399;51.516;13.670;2023-04-23T05:43:00;99649.00;;;14.96;80.23
41712;BME280;27399;51.516;13.670;2023-04-23T05:45:26;99655.31;;;14.95;79.50
41712;BME280;27399;51.516;13.670;2023-04-23T05:47:52;99641.63;;;15.01;77.13
41712;BME280;27399;51.516;13.670;2023-04-23T05:50:20;99648.50;;;15.08;76.93
41712;BME280;27399;51.516;13.670;2023-04-23T05:52:46;99645.81;;;15.08;79.76
41712;BME280;27399;51.516;13.670;2023-04-23T05:55:12;99649.00;;;14.96;81.87
41712;BME280;27399;51.516;13.670;2023-04-23T05:57:40;99656.50;;;15.10;79.63
41712;BME280;27399;51.516;13.670;2023-04-23T06:00:07;99658.94;;;15.16;78.31
41712;BME280;27399;51.516;13.670;2023-04-23T06:02:39;99654.50;;;15.15;80.73
41712;BME280;27399;51.516;13.670;2023-04-23T06:05:06;99662.72;;;15.12;80.52
41712;BME280;27399;51.516;13.670;2023-04-23T06:07:32;99648.28;;;15.14;81.84
41712;BME280;27399;51.516;13.670;2023-04-23T06:09:58;99655.25;;;15.18;79.29
41712;BME280;27399;51.516;13.670;2023-04-23T06:12:23;99652.66;;;15.17;79.04
41712;BME280;27399;51.516;13.670;2023-04-23T06:14:49;99649.41;;;15.09;79.45
41712;BME280;27399;51.516;13.670;2023-04-23T06:17:14;99657.81;;;15.22;78.21
41712;BME280;27399;51.516;13.670;2023-04-23T06:19:40;99653.34;;;15.22;78.13
41712;BME280;27399;51.516;13.670;2023-04-23T06:22:06;99649.59;;;15.26;78.37
41712;BME280;27399;51.516;13.670;2023-04-23T06:24:32;99646.84;;;15.28;78.97
41712;BME280;27399;51.516;13.670;2023-04-23T06:26:57;99654.66;;;15.34;78.05
41712;BME280;27399;51.516;13.670;2023-04-23T06:29:23;99646.41;;;15.39;78.79
41712;BME280;27399;51.516;13.670;2023-04-23T06:31:49;99643.28;;;15.27;80.43
41712;BME280;27399;51.516;13.670;2023-04-23T06:34:14;99645.75;;;15.33;81.27
41712;BME280;27399;51.516;13.670;2023-04-23T06:36:40;99646.16;;;15.45;78.83
41712;BME280;27399;51.516;13.670;2023-04-23T06:39:07;99650.47;;;15.49;79.27
41712;BME280;27399;51.516;13.670;2023-04-23T06:41:33;99655.34;;;15.61;79.04
41712;BME280;27399;51.516;13.670;2023-04-23T06:43:59;99649.50;;;15.72;78.62
41712;BME280;27399;51.516;13.670;2023-04-23T06:46:24;99650.94;;;15.81;78.08
41712;BME280;27399;51.516;13.670;2023-04-23T06:48:50;99649.91;;;15.85;79.79
41712;BME280;27399;51.516;13.670;2023-04-23T06:51:16;99645.88;;;15.95;78.23
41712;BME280;27399;51.516;13.670;2023-04-23T06:53:41;99646.69;;;15.98;76.63
41712;BME280;27399;51.516;13.670;2023-04-23T06:56:07;99653.13;;;15.93;75.49
41712;BME280;27399;51.516;13.670;2023-04-23T06:58:33;99648.97;;;16.07;75.04
41712;BME280;27399;51.516;13.670;2023-04-23T07:00:59;99653.00;;;16.17;74.89
41712;BME280;27399;51.516;13.670;2023-04-23T07:03:28;99659.13;;;16.21;74.58
41712;BME280;27399;51.516;13.670;2023-04-23T07:05:55;99661.78;;;16.62;74.53
41712;BME280;27399;51.516;13.670;2023-04-23T07:08:20;99665.28;;;16.64;74.58
41712;BME280;27399;51.516;13.670;2023-04-23T07:10:47;99660.09;;;16.79;74.34
41712;BME280;27399;51.516;13.670;2023-04-23T07:13:13;99668.47;;;16.72;73.93
41712;BME280;27399;51.516;13.670;2023-04-23T07:15:38;99669.16;;;16.57;74.22
41712;BME280;27399;51.516;13.670;2023-04-23T07:18:05;99675.19;;;16.83;74.29
41712;BME280;27399;51.516;13.670;2023-04-23T07:20:31;99673.88;;;16.72;74.06
41712;BME280;27399;51.516;13.670;2023-04-23T07:22:58;99670.56;;;16.66;74.50
41712;BME280;27399;51.516;13.670;2023-04-23T07:25:24;99687.91;;;16.79;74.04
41712;BME280;27399;51.516;13.670;2023-04-23T07:27:51;99689.16;;;16.91;74.09
41712;BME280;27399;51.516;13.670;2023-04-23T07:30:18;99683.53;;;16.97;74.15
41712;BME280;27399;51.516;13.670;2023-04-23T07:32:46;99689.59;;;16.82;74.62
41712;BME280;27399;51.516;13.670;2023-04-23T07:35:11;99699.38;;;16.64;74.88
41712;BME280;27399;51.516;13.670;2023-04-23T07:37:37;99688.94;;;16.77;75.19
41712;BME280;27399;51.516;13.670;2023-04-23T07:40:03;99686.56;;;16.89;74.62
41712;BME280;27399;51.516;13.670;2023-04-23T07:42:30;99697.56;;;16.64;75.28
41712;BME280;27399;51.516;13.670;2023-04-23T07:44:56;99686.38;;;16.73;75.42
41712;BME280;27399;51.516;13.670;2023-04-23T07:47:22;99700.88;;;16.90;75.05
41712;BME280;27399;51.516;13.670;2023-04-23T07:49:48;99702.25;;;16.80;75.85
41712;BME280;27399;51.516;13.670;2023-04-23T07:52:14;99706.34;;;16.88;74.97
41712;BME280;27399;51.516;13.670;2023-04-23T07:54:40;99708.22;;;16.86;76.01
41712;BME280;27399;51.516;13.670;2023-04-23T07:57:06;99707.38;;;16.86;75.45
41712;BME280;27399;51.516;13.670;2023-04-23T07:59:31;99709.34;;;16.82;75.12
41712;BME280;27399;51.516;13.670;2023-04-23T08:01:57;99706.91;;;16.76;75.74
41712;BME280;27399;51.516;13.670;2023-04-23T08:04:22;99716.03;;;16.93;75.33
41712;BME280;27399;51.516;13.670;2023-04-23T08:06:48;99713.22;;;16.96;75.89
41712;BME280;27399;51.516;13.670;2023-04-23T08:09:14;99705.81;;;17.01;75.87
41712;BME280;27399;51.516;13.670;2023-04-23T08:11:40;99715.84;;;16.97;76.18
41712;BME280;27399;51.516;13.670;2023-04-23T08:14:06;99714.63;;;16.84;75.79
41712;BME280;27399;51.516;13.670;2023-04-23T08:16:31;99712.94;;;17.02;75.94
41712;BME280;27399;51.516;13.670;2023-04-23T08:18:57;99713.72;;;17.04;77.11
41712;BME280;27399;51.516;13.670;2023-04-23T08:21:23;99708.63;;;16.98;76.69
41712;BME280;27399;51.516;13.670;2023-04-23T08:23:51;99701.06;;;17.06;76.34
41712;BME280;27399;51.516;13.670;2023-04-23T08:26:16;99706.97;;;17.14;75.95
41712;BME280;27399;51.516;13.670;2023-04-23T08:28:42;99704.00;;;17.21;76.21
41712;BME280;27399;51.516;13.670;2023-04-23T08:31:08;99715.22;;;17.11;76.06
41712;BME280;27399;51.516;13.670;2023-04-23T08:33:33;99707.84;;;17.15;76.25
41712;BME280;27399;51.516;13.670;2023-04-23T08:35:59;99713.53;;;17.28;75.77
41712;BME280;27399;51.516;13.670;2023-04-23T08:38:25;99712.72;;;17.45;75.67
41712;BME280;27399;51.516;13.670;2023-04-23T08:40:55;99716.00;;;17.52;75.18
41712;BME280;27399;51.516;13.670;2023-04-23T08:43:29;99715.69;;;17.58;74.84
41712;BME280;27399;51.516;13.670;2023-04-23T08:45:56;99716.53;;;17.77;74.46
41712;BME280;27399;51.516;13.670;2023-04-23T08:48:25;99715.97;;;17.71;74.67
41712;BME280;27399;51.516;13.670;2023-04-23T08:50:52;99714.81;;;17.57;74.75
41712;BME280;27399;51.516;13.670;2023-04-23T08:53:19;99712.34;;;17.53;73.86
41712;BME280;27399;51.516;13.670;2023-04-23T08:55:48;99712.47;;;17.69;74.26
41712;BME280;27399;51.516;13.670;2023-04-23T08:58:15;99718.47;;;17.93;73.33
41712;BME280;27399;51.516;13.670;2023-04-23T09:00:41;99715.44;;;17.81;73.42
41712;BME280;27399;51.516;13.670;2023-04-23T09:03:07;99720.00;;;17.79;73.36
41712;BME280;27399;51.516;13.670;2023-04-23T09:05:33;99723.75;;;17.77;74.05
41712;BME280;27399;51.516;13.670;2023-04-23T09:07:58;99719.38;;;17.74;73.28
41712;BME280;27399;51.516;13.670;2023-04-23T09:10:24;99718.50;;;17.74;74.42
41712;BME280;27399;51.516;13.670;2023-04-23T09:12:50;99724.81;;;17.92;73.96
41712;BME280;27399;51.516;13.670;2023-04-23T09:15:16;99722.25;;;17.89;73.04
41712;BME280;27399;51.516;13.670;2023-04-23T09:17:44;99726.41;;;17.96;73.05
41712;BME280;27399;51.516;13.670;2023-04-23T09:20:11;99734.41;;;18.17;72.59
41712;BME280;27399;51.516;13.670;2023-04-23T09:22:38;99719.47;;;18.09;72.08
41712;BME280;27399;51.516;13.670;2023-04-23T09:25:06;99728.13;;;18.85;70.18
41712;BME280;27399;51.516;13.670;2023-04-23T09:27:32;99727.78;;;19.09;69.81
41712;BME280;27399;51.516;13.670;2023-04-23T09:29:59;99720.03;;;18.85;69.24
41712;BME280;27399;51.516;13.670;2023-04-23T09:32:33;99718.91;;;18.55;70.41
41712;BME280;27399;51.516;13.670;2023-04-23T09:35:05;99732.34;;;18.39;70.55
41712;BME280;27399;51.516;13.670;2023-04-23T09:37:31;99725.66;;;18.47;71.01
41712;BME280;27399;51.516;13.670;2023-04-23T09:40:01;99724.13;;;18.58;71.04
41712;BME280;27399;51.516;13.670;2023-04-23T09:42:29;99722.78;;;18.32;71.47
41712;BME280;27399;51.516;13.670;2023-04-23T09:44:56;99725.97;;;18.05;72.17
41712;BME280;27399;51.516;13.670;2023-04-23T09:47:22;99721.22;;;18.28;72.32
41712;BME280;27399;51.516;13.670;2023-04-23T09:49:49;99729.94;;;18.33;72.39
41712;BME280;27399;51.516;13.670;2023-04-23T09:52:15;99723.44;;;18.20;72.36
41712;BME280;27399;51.516;13.670;2023-04-23T09:54:42;99728.19;;;17.78;73.45
41712;BME280;27399;51.516;13.670;2023-04-23T09:57:10;99729.94;;;17.98;72.89
41712;BME280;27399;51.516;13.670;2023-04-23T09:59:36;99734.88;;;18.07;72.91
41712;BME280;27399;51.516;13.670;2023-04-23T10:02:04;99733.13;;;17.87;73.74
41712;BME280;27399;51.516;13.670;2023-04-23T10:04:31;99736.84;;;18.04;73.22
41712;BME280;27399;51.516;13.670;2023-04-23T10:07:02;99746.66;;;18.05;74.36
41712;BME280;27399;51.516;13.670;2023-04-23T10:09:29;99739.75;;;17.99;75.93
41712;BME280;27399;51.516;13.670;2023-04-23T10:11:57;99740.97;;;17.92;76.45
41712;BME280;27399;51.516;13.670;2023-04-23T10:14:24;99747.09;;;17.95;76.58
41712;BME280;27399;51.516;13.670;2023-04-23T10:16:52;99753.19;;;17.81;76.61
41712;BME280;27399;51.516;13.670;2023-04-23T10:19:22;99751.16;;;17.87;76.33
41712;BME280;27399;51.516;13.670;2023-04-23T10:21:52;99759.59;;;17.79;77.06
41712;BME280;27399;51.516;13.670;2023-04-23T10:24:22;99758.66;;;17.80;76.53
41712;BME280;27399;51.516;13.670;2023-04-23T10:26:51;99759.13;;;17.71;77.41
41712;BME280;27399;51.516;13.670;2023-04-23T10:29:20;99769.91;;;17.71;76.86
41712;BME280;27399;51.516;13.670;2023-04-23T10:31:52;99763.22;;;17.60;76.30
41712;BME280;27399;51.516;13.670;2023-04-23T10:34:19;99765.97;;;17.59;76.21
41712;BME280;27399;51.516;13.670;2023-04-23T10:36:45;99760.78;;;17.54;77.00
41712;BME280;27399;51.516;13.670;2023-04-23T10:39:12;99752.78;;;17.53;76.72
41712;BME280;27399;51.516;13.670;2023-04-23T10:41:40;99761.91;;;17.50;76.81
41712;BME280;27399;51.516;13.670;2023-04-23T10:44:11;99765.41;;;17.33;77.19
41712;BME280;27399;51.516;13.670;2023-04-23T10:46:37;99766.38;;;17.30;76.90
41712;BME280;27399;51.516;13.670;2023-04-23T10:49:09;99779.72;;;17.33;76.86
41712;BME280;27399;51.516;13.670;2023-04-23T10:51:36;99769.84;;;17.34;77.49
41712;BME280;27399;51.516;13.670;2023-04-23T10:54:04;99773.53;;;17.12;79.42
41712;BME280;27399;51.516;13.670;2023-04-23T10:56:30;99776.75;;;17.21;81.29
41712;BME280;27399;51.516;13.670;2023-04-23T10:58:56;99776.22;;;17.12;81.35
41712;BME280;27399;51.516;13.670;2023-04-23T11:01:27;99775.84;;;17.01;81.68
41712;BME280;27399;51.516;13.670;2023-04-23T11:03:54;99782.09;;;17.01;82.31
41712;BME280;27399;51.516;13.670;2023-04-23T11:07:11;99775.75;;;16.82;85.45
41712;BME280;27399;51.516;13.670;2023-04-23T11:09:46;99780.53;;;16.75;83.80
41712;BME280;27399;51.516;13.670;2023-04-23T11:14:54;99774.63;;;16.46;84.51
41712;BME280;27399;51.516;13.670;2023-04-23T11:20:13;99772.13;;;16.21;86.87
41712;BME280;27399;51.516;13.670;2023-04-23T11:22:42;99769.47;;;16.19;86.58
41712;BME280;27399;51.516;13.670;2023-04-23T11:25:19;99764.91;;;16.21;86.88
41712;BME280;27399;51.516;13.670;2023-04-23T11:27:46;99764.59;;;16.29;88.17
41712;BME280;27399;51.516;13.670;2023-04-23T11:32:39;99762.56;;;16.14;86.93
41712;BME280;27399;51.516;13.670;2023-04-23T11:35:06;99760.47;;;16.20;87.58
41712;BME280;27399;51.516;13.670;2023-04-23T11:37:38;99765.41;;;16.09;87.66
41712;BME280;27399;51.516;13.670;2023-04-23T11:40:07;99771.06;;;16.03;88.09
41712;BME280;27399;51.516;13.670;2023-04-23T11:42:51;99772.53;;;16.10;87.65
41712;BME280;27399;51.516;13.670;2023-04-23T11:45:20;99764.63;;;16.07;87.25
41712;BME280;27399;51.516;13.670;2023-04-23T11:47:48;99763.16;;;16.20;87.50
41712;BME280;27399;51.516;13.670;2023-04-23T11:50:40;99760.66;;;16.16;87.30
41712;BME280;27399;51.516;13.670;2023-04-23T11:53:09;99754.13;;;16.21;86.92
41712;BME280;27399;51.516;13.670;2023-04-23T11:55:34;99760.41;;;16.22;85.91
41712;BME280;27399;51.516;13.670;2023-04-23T11:58:01;99748.97;;;16.17;85.93
41712;BME280;27399;51.516;13.670;2023-04-23T12:00:27;99753.94;;;16.47;85.46
41712;BME280;27399;51.516;13.670;2023-04-23T12:05:30;99744.00;;;16.69;85.36
41712;BME280;27399;51.516;13.670;2023-04-23T12:08:07;99755.97;;;16.83;85.72
41712;BME280;27399;51.516;13.670;2023-04-23T12:10:48;99752.75;;;16.95;84.51
41712;BME280;27399;51.516;13.670;2023-04-23T12:13:24;99752.31;;;17.04;85.21
41712;BME280;27399;51.516;13.670;2023-04-23T12:15:59;99757.38;;;16.92;85.13
41712;BME280;27399;51.516;13.670;2023-04-23T12:18:38;99752.97;;;17.10;83.75
41712;BME280;27399;51.516;13.670;2023-04-23T12:21:12;99759.91;;;17.34;83.12
41712;BME280;27399;51.516;13.670;2023-04-23T12:23:39;99753.00;;;17.48;82.20
41712;BME280;27399;51.516;13.670;2023-04-23T12:26:14;99744.09;;;17.65;81.64
41712;BME280;27399;51.516;13.670;2023-04-23T12:28:48;99752.81;;;17.89;81.63
41712;BME280;27399;51.516;13.670;2023-04-23T12:31:22;99751.84;;;18.09;78.73
41712;BME280;27399;51.516;13.670;2023-04-23T12:34:09;99758.22;;;18.26;78.51
41712;BME280;27399;51.516;13.670;2023-04-23T12:36:36;99758.53;;;18.37;77.18
41712;BME280;27399;51.516;13.670;2023-04-23T12:39:22;99754.69;;;18.41;77.13
41712;BME280;27399;51.516;13.670;2023-04-23T12:41:52;99745.50;;;18.46;75.92
41712;BME280;27399;51.516;13.670;2023-04-23T12:44:19;99748.38;;;18.60;75.83
41712;BME280;27399;51.516;13.670;2023-04-23T12:46:48;99737.38;;;18.63;73.94
41712;BME280;27399;51.516;13.670;2023-04-23T12:51:41;99740.31;;;18.76;73.64
41712;BME280;27399;51.516;13.670;2023-04-23T12:54:07;99739.31;;;18.61;74.32
41712;BME280;27399;51.516;13.670;2023-04-23T12:56:32;99746.16;;;18.51;73.58
41712;BME280;27399;51.516;13.670;2023-04-23T12:58:58;99739.63;;;18.72;74.05
41712;BME280;27399;51.516;13.670;2023-04-23T13:01:26;99730.31;;;18.61;71.31
41712;BME280;27399;51.516;13.670;2023-04-23T13:03:52;99731.56;;;18.88;70.64